sensor_id;sensor_type;location;lat;lon;timestamp;temperature;humidity
23120;DHT22;11729;50.836;4.330;2023-04-16T00:02:10;10.30;99.90
23120;DHT22;11729;50.836;4.330;2023-04-16T00:04:37;10.30;99.90
23120;DHT22;11729;50.836;4.330;2023-04-16T00:07:03;10.50;99.90
23120;DHT22;11729;50.836;4.330;2023-04-16T00:09:39;10.30;99.90
23120;DHT22;11729;50.836;4.330;2023-04-16T00:12:06;10.30;99.90
23120;DHT22;11729;50.836;4.330;2023-04-16T00:14:32;10.10;99.90
23120;DHT22;11729;50.836;4.330;2023-04-16T00:16:57;10.10;99.90
23120;DHT22;11729;50.836;4.330;2023-04-16T00:19:23;10.20;99.90
23120;DHT22;11729;50.836;4.330;2023-04-16T00:21:48;10.30;99.90
23120;DHT22;11729;50.836;4.330;2023-04-16T00:24:14;10.50;99.90
23120;DHT22;11729;50.836;4.330;2023-04-16T00:26:40;10.50;99.90
23120;DHT22;11729;50.836;4.330;2023-04-16T00:29:08;10.60;99.90
23120;DHT22;11729;50.836;4.330;2023-04-16T00:31:34;10.60;99.90
23120;DHT22;11729;50.836;4.330;2023-04-16T00:33:59;10.30;99.90
23120;DHT22;11729;50.836;4.330;2023-04-16T00:36:26;10.20;99.90
23120;DHT22;11729;50.836;4.330;2023-04-16T00:38:52;10.30;99.90
23120;DHT22;11729;50.836;4.330;2023-04-16T00:41:20;10.30;99.90
23120;DHT22;11729;50.836;4.330;2023-04-16T00:43:47;10.40;99.90
23120;DHT22;11729;50.836;4.330;2023-04-16T00:46:15;10.40;99.90
23120;DHT22;11729;50.836;4.330;2023-04-16T00:48:42;10.30;99.90
23120;DHT22;11729;50.836;4.330;2023-04-16T00:51:09;10.20;99.90
23120;DHT22;11729;50.836;4.330;2023-04-16T00:53:36;10.00;99.90
23120;DHT22;11729;50.836;4.330;2023-04-16T00:56:05;10.10;99.90
23120;DHT22;11729;50.836;4.330;2023-04-16T00:58:32;10.10;99.90
23120;DHT22;11729;50.836;4.330;2023-04-16T01:00:59;10.30;99.90
23120;DHT22;11729;50.836;4.330;2023-04-16T01:03:47;10.30;99.90
23120;DHT22;11729;50.836;4.330;2023-04-16T01:06:17;10.10;99.90
23120;DHT22;11729;50.836;4.330;2023-04-16T01:08:43;10.30;99.90
23120;DHT22;11729;50.836;4.330;2023-04-16T01:11:09;10.30;99.90
23120;DHT22;11729;50.836;4.330;2023-04-16T01:13:35;10.20;99.90
23120;DHT22;11729;50.836;4.330;2023-04-16T01:16:08;10.00;99.90
23120;DHT22;11729;50.836;4.330;2023-04-16T01:18:34;10.00;99.90
23120;DHT22;11729;50.836;4.330;2023-04-16T01:21:00;9.80;99.90
23120;DHT22;11729;50.836;4.330;2023-04-16T01:23:26;9.70;99.90
23120;DHT22;11729;50.836;4.330;2023-04-16T01:25:51;9.90;99.90
23120;DHT22;11729;50.836;4.330;2023-04-16T01:28:17;9.90;99.90
23120;DHT22;11729;50.836;4.330;2023-04-16T01:30:43;10.00;99.90
23120;DHT22;11729;50.836;4.330;2023-04-16T01:33:12;10.10;99.90
23120;DHT22;11729;50.836;4.330;2023-04-16T01:35:38;10.00;99.90
23120;DHT22;11729;50.836;4.330;2023-04-16T01:38:06;9.90;99.90
23120;DHT22;11729;50.836;4.330;2023-04-16T01:40:33;9.90;99.90
23120;DHT22;11729;50.836;4.330;2023-04-16T01:42:59;9.90;99.90
23120;DHT22;11729;50.836;4.330;2023-04-16T01:45:25;9.90;99.90
23120;DHT22;11729;50.836;4.330;2023-04-16T01:47:51;10.20;99.90
23120;DHT22;11729;50.836;4.330;2023-04-16T01:50:17;10.20;99.90
23120;DHT22;11729;50.836;4.330;2023-04-16T01:52:43;10.30;99.90
23120;DHT22;11729;50.836;4.330;2023-04-16T01:55:09;10.20;99.90
23120;DHT22;11729;50.836;4.330;2023-04-16T01:57:36;10.20;99.90
23120;DHT22;11729;50.836;4.330;2023-04-16T02:00:02;10.00;99.90
23120;DHT22;11729;50.836;4.330;2023-04-16T02:02:28;10.10;99.90
23120;DHT22;11729;50.836;4.330;2023-04-16T02:04:55;10.20;99.90
23120;DHT22;11729;50.836;4.330;2023-04-16T02:07:22;10.30;99.90
23120;DHT22;11729;50.836;4.330;2023-04-16T02:09:48;10.20;99.90
23120;DHT22;11729;50.836;4.330;2023-04-16T02:12:15;10.30;99.90
23120;DHT22;11729;50.836;4.330;2023-04-16T02:14:41;10.40;99.90
23120;DHT22;11729;50.836;4.330;2023-04-16T02:17:06;10.50;99.90
23120;DHT22;11729;50.836;4.330;2023-04-16T02:19:32;10.30;99.90
23120;DHT22;11729;50.836;4.330;2023-04-16T02:21:58;10.10;99.90
23120;DHT22;11729;50.836;4.330;2023-04-16T02:24:25;10.20;99.90
23120;DHT22;11729;50.836;4.330;2023-04-16T02:26:51;10.20;99.90
23120;DHT22;11729;50.836;4.330;2023-04-16T02:29:16;10.30;99.90
23120;DHT22;11729;50.836;4.330;2023-04-16T02:31:42;10.30;99.90
23120;DHT22;11729;50.836;4.330;2023-04-16T02:34:08;10.30;99.90
23120;DHT22;11729;50.836;4.330;2023-04-16T02:36:34;10.30;99.90
23120;DHT22;11729;50.836;4.330;2023-04-16T02:39:00;10.10;99.90
23120;DHT22;11729;50.836;4.330;2023-04-16T02:41:25;9.90;99.90
23120;DHT22;11729;50.836;4.330;2023-04-16T02:43:51;9.90;99.90
23120;DHT22;11729;50.836;4.330;2023-04-16T02:46:16;9.70;99.90
23120;DHT22;11729;50.836;4.330;2023-04-16T02:48:42;9.80;99.90
23120;DHT22;11729;50.836;4.330;2023-04-16T02:51:07;10.00;99.90
23120;DHT22;11729;50.836;4.330;2023-04-16T02:53:33;10.30;99.90
23120;DHT22;11729;50.836;4.330;2023-04-16T02:55:59;10.40;99.90
23120;DHT22;11729;50.836;4.330;2023-04-16T02:58:25;10.30;99.90
23120;DHT22;11729;50.836;4.330;2023-04-16T03:00:52;10.40;99.90
23120;DHT22;11729;50.836;4.330;2023-04-16T03:03:18;10.30;99.90
23120;DHT22;11729;50.836;4.330;2023-04-16T03:05:44;10.30;99.90
23120;DHT22;11729;50.836;4.330;2023-04-16T03:08:09;10.30;99.90
23120;DHT22;11729;50.836;4.330;2023-04-16T03:10:35;10.30;99.90
23120;DHT22;11729;50.836;4.330;2023-04-16T03:13:01;10.40;99.90
23120;DHT22;11729;50.836;4.330;2023-04-16T03:15:27;10.50;99.90
23120;DHT22;11729;50.836;4.330;2023-04-16T03:17:53;10.50;99.90
23120;DHT22;11729;50.836;4.330;2023-04-16T03:20:19;10.20;99.90
23120;DHT22;11729;50.836;4.330;2023-04-16T03:22:46;10.30;99.90
23120;DHT22;11729;50.836;4.330;2023-04-16T03:25:12;10.30;99.90
23120;DHT22;11729;50.836;4.330;2023-04-16T03:27:38;10.20;99.90
23120;DHT22;11729;50.836;4.330;2023-04-16T03:30:07;10.30;99.90
23120;DHT22;11729;50.836;4.330;2023-04-16T03:32:32;10.30;99.90
23120;DHT22;11729;50.836;4.330;2023-04-16T03:34:58;10.50;99.90
23120;DHT22;11729;50.836;4.330;2023-04-16T03:37:24;10.70;99.90
23120;DHT22;11729;50.836;4.330;2023-04-16T03:39:50;10.60;99.90
23120;DHT22;11729;50.836;4.330;2023-04-16T03:42:15;10.60;99.90
23120;DHT22;11729;50.836;4.330;2023-04-16T03:44:41;10.70;99.90
23120;DHT22;11729;50.836;4.330;2023-04-16T03:47:07;10.60;99.90
23120;DHT22;11729;50.836;4.330;2023-04-16T03:49:33;10.60;99.90
23120;DHT22;11729;50.836;4.330;2023-04-16T03:51:59;10.60;99.90
23120;DHT22;11729;50.836;4.330;2023-04-16T03:54:24;10.60;99.90
23120;DHT22;11729;50.836;4.330;2023-04-16T03:56:50;10.30;99.90
23120;DHT22;11729;50.836;4.330;2023-04-16T03:59:17;10.40;99.90
23120;DHT22;11729;50.836;4.330;2023-04-16T04:01:42;10.40;99.90
23120;DHT22;11729;50.836;4.330;2023-04-16T04:04:08;10.60;99.90
23120;DHT22;11729;50.836;4.330;2023-04-16T04:06:35;10.60;99.90
23120;DHT22;11729;50.836;4.330;2023-04-16T04:09:00;10.50;99.90
23120;DHT22;11729;50.836;4.330;2023-04-16T04:11:26;10.50;99.90
23120;DHT22;11729;50.836;4.330;2023-04-16T04:13:52;10.50;99.90
23120;DHT22;11729;50.836;4.330;2023-04-16T04:16:17;10.50;99.90
23120;DHT22;11729;50.836;4.330;2023-04-16T04:18:43;10.50;99.90
23120;DHT22;11729;50.836;4.330;2023-04-16T04:21:09;10.40;99.90
23120;DHT22;11729;50.836;4.330;2023-04-16T04:23:35;10.40;99.90
23120;DHT22;11729;50.836;4.330;2023-04-16T04:26:01;10.60;99.90
23120;DHT22;11729;50.836;4.330;2023-04-16T04:28:29;10.50;99.90
23120;DHT22;11729;50.836;4.330;2023-04-16T04:30:56;10.60;99.90
23120;DHT22;11729;50.836;4.330;2023-04-16T04:33:22;10.60;99.90
23120;DHT22;11729;50.836;4.330;2023-04-16T04:35:47;10.60;99.90
23120;DHT22;11729;50.836;4.330;2023-04-16T04:38:13;10.60;99.90
23120;DHT22;11729;50.836;4.330;2023-04-16T04:40:38;10.40;99.90
23120;DHT22;11729;50.836;4.330;2023-04-16T04:43:04;10.40;99.90
23120;DHT22;11729;50.836;4.330;2023-04-16T04:45:30;10.40;99.90
23120;DHT22;11729;50.836;4.330;2023-04-16T04:47:55;10.30;99.90
23120;DHT22;11729;50.836;4.330;2023-04-16T04:50:21;10.10;99.90
23120;DHT22;11729;50.836;4.330;2023-04-16T04:52:47;10.20;99.90
23120;DHT22;11729;50.836;4.330;2023-04-16T04:55:13;10.10;99.90
23120;DHT22;11729;50.836;4.330;2023-04-16T04:57:40;10.10;99.90
23120;DHT22;11729;50.836;4.330;2023-04-16T05:00:06;10.30;99.90
23120;DHT22;11729;50.836;4.330;2023-04-16T05:02:33;10.50;99.90
23120;DHT22;11729;50.836;4.330;2023-04-16T05:04:59;10.40;99.90
23120;DHT22;11729;50.836;4.330;2023-04-16T05:07:24;10.20;99.90
23120;DHT22;11729;50.836;4.330;2023-04-16T05:09:50;10.20;99.90
23120;DHT22;11729;50.836;4.330;2023-04-16T05:12:16;10.20;99.90
23120;DHT22;11729;50.836;4.330;2023-04-16T05:14:42;10.20;99.90
23120;DHT22;11729;50.836;4.330;2023-04-16T05:17:07;10.30;99.90
23120;DHT22;11729;50.836;4.330;2023-04-16T05:19:35;10.60;99.90
23120;DHT22;11729;50.836;4.330;2023-04-16T05:22:00;10.60;99.90
23120;DHT22;11729;50.836;4.330;2023-04-16T05:24:27;10.70;99.90
23120;DHT22;11729;50.836;4.330;2023-04-16T05:26:52;10.70;99.90
23120;DHT22;11729;50.836;4.330;2023-04-16T05:29:18;10.80;99.90
23120;DHT22;11729;50.836;4.330;2023-04-16T05:31:44;10.50;99.90
23120;DHT22;11729;50.836;4.330;2023-04-16T05:34:10;10.50;99.90
23120;DHT22;11729;50.836;4.330;2023-04-16T05:36:35;10.50;99.90
23120;DHT22;11729;50.836;4.330;2023-04-16T05:39:01;10.40;99.90
23120;DHT22;11729;50.836;4.330;2023-04-16T05:41:27;10.30;99.90
23120;DHT22;11729;50.836;4.330;2023-04-16T05:43:52;10.30;99.90
23120;DHT22;11729;50.836;4.330;2023-04-16T05:46:18;10.20;99.90
23120;DHT22;11729;50.836;4.330;2023-04-16T05:48:44;10.20;99.90
23120;DHT22;11729;50.836;4.330;2023-04-16T05:51:11;10.40;99.90
23120;DHT22;11729;50.836;4.330;2023-04-16T05:53:37;10.40;99.90
23120;DHT22;11729;50.836;4.330;2023-04-16T05:56:02;10.60;99.90
23120;DHT22;11729;50.836;4.330;2023-04-16T05:58:28;10.60;99.90
23120;DHT22;11729;50.836;4.330;2023-04-16T06:00:54;10.10;99.90
23120;DHT22;11729;50.836;4.330;2023-04-16T06:03:19;10.10;99.90
23120;DHT22;11729;50.836;4.330;2023-04-16T06:05:45;10.30;99.90
23120;DHT22;11729;50.836;4.330;2023-04-16T06:08:10;10.40;99.90
23120;DHT22;11729;50.836;4.330;2023-04-16T06:10:36;10.50;99.90
23120;DHT22;11729;50.836;4.330;2023-04-16T06:13:02;10.50;99.90
23120;DHT22;11729;50.836;4.330;2023-04-16T06:15:28;10.40;99.90
23120;DHT22;11729;50.836;4.330;2023-04-16T06:17:54;10.30;99.90
23120;DHT22;11729;50.836;4.330;2023-04-16T06:20:20;10.50;99.90
23120;DHT22;11729;50.836;4.330;2023-04-16T06:22:45;10.50;99.90
23120;DHT22;11729;50.836;4.330;2023-04-16T06:25:11;10.60;99.90
23120;DHT22;11729;50.836;4.330;2023-04-16T06:27:37;10.50;99.90
23120;DHT22;11729;50.836;4.330;2023-04-16T06:30:03;10.60;99.90
23120;DHT22;11729;50.836;4.330;2023-04-16T06:32:29;10.60;99.90
23120;DHT22;11729;50.836;4.330;2023-04-16T06:34:55;10.60;99.90
23120;DHT22;11729;50.836;4.330;2023-04-16T06:37:23;10.40;99.90
23120;DHT22;11729;50.836;4.330;2023-04-16T06:39:49;10.40;99.90
23120;DHT22;11729;50.836;4.330;2023-04-16T06:42:16;10.30;99.90
23120;DHT22;11729;50.836;4.330;2023-04-16T06:44:42;10.30;99.90
23120;DHT22;11729;50.836;4.330;2023-04-16T06:47:07;10.30;99.90
23120;DHT22;11729;50.836;4.330;2023-04-16T06:49:33;10.10;99.90
23120;DHT22;11729;50.836;4.330;2023-04-16T06:51:58;10.10;99.90
23120;DHT22;11729;50.836;4.330;2023-04-16T06:54:26;10.20;99.90
23120;DHT22;11729;50.836;4.330;2023-04-16T06:56:51;10.30;99.90
23120;DHT22;11729;50.836;4.330;2023-04-16T06:59:17;10.40;99.90
23120;DHT22;11729;50.836;4.330;2023-04-16T07:01:42;10.30;99.90
23120;DHT22;11729;50.836;4.330;2023-04-16T07:04:08;10.50;99.90
23120;DHT22;11729;50.836;4.330;2023-04-16T07:06:33;10.30;99.90
23120;DHT22;11729;50.836;4.330;2023-04-16T07:08:59;10.20;99.90
23120;DHT22;11729;50.836;4.330;2023-04-16T07:11:25;10.30;99.90
23120;DHT22;11729;50.836;4.330;2023-04-16T07:13:51;10.50;99.90
23120;DHT22;11729;50.836;4.330;2023-04-16T07:16:18;10.50;99.90
23120;DHT22;11729;50.836;4.330;2023-04-16T07:18:43;10.50;99.90
23120;DHT22;11729;50.836;4.330;2023-04-16T07:21:09;10.50;99.90
23120;DHT22;11729;50.836;4.330;2023-04-16T07:23:35;10.70;99.90
23120;DHT22;11729;50.836;4.330;2023-04-16T07:26:00;10.40;99.90
23120;DHT22;11729;50.836;4.330;2023-04-16T07:28:26;10.60;99.90
23120;DHT22;11729;50.836;4.330;2023-04-16T07:30:51;10.40;99.90
23120;DHT22;11729;50.836;4.330;2023-04-16T07:33:18;10.30;99.90
23120;DHT22;11729;50.836;4.330;2023-04-16T07:35:44;10.30;99.90
23120;DHT22;11729;50.836;4.330;2023-04-16T07:38:09;10.40;99.90
23120;DHT22;11729;50.836;4.330;2023-04-16T07:40:35;10.30;99.90
23120;DHT22;11729;50.836;4.330;2023-04-16T07:43:01;10.30;99.90
23120;DHT22;11729;50.836;4.330;2023-04-16T07:45:27;10.40;99.90
23120;DHT22;11729;50.836;4.330;2023-04-16T07:47:52;10.60;99.90
23120;DHT22;11729;50.836;4.330;2023-04-16T07:50:18;10.80;99.90
23120;DHT22;11729;50.836;4.330;2023-04-16T07:52:45;10.90;99.90
23120;DHT22;11729;50.836;4.330;2023-04-16T07:55:12;11.00;99.90
23120;DHT22;11729;50.836;4.330;2023-04-16T07:57:39;11.00;99.90
23120;DHT22;11729;50.836;4.330;2023-04-16T08:00:05;11.00;99.90
23120;DHT22;11729;50.836;4.330;2023-04-16T08:02:32;11.00;99.90
23120;DHT22;11729;50.836;4.330;2023-04-16T08:04:58;10.90;99.90
23120;DHT22;11729;50.836;4.330;2023-04-16T08:07:26;10.80;99.90
23120;DHT22;11729;50.836;4.330;2023-04-16T08:09:52;10.70;99.90
23120;DHT22;11729;50.836;4.330;2023-04-16T08:12:18;10.60;99.90
23120;DHT22;11729;50.836;4.330;2023-04-16T08:14:45;10.80;99.90
23120;DHT22;11729;50.836;4.330;2023-04-16T08:17:11;10.60;99.90
23120;DHT22;11729;50.836;4.330;2023-04-16T08:19:37;10.40;99.90
23120;DHT22;11729;50.836;4.330;2023-04-16T08:22:04;10.50;99.90
23120;DHT22;11729;50.836;4.330;2023-04-16T08:24:30;10.60;99.90
23120;DHT22;11729;50.836;4.330;2023-04-16T08:26:58;10.80;99.90
23120;DHT22;11729;50.836;4.330;2023-04-16T08:29:24;10.70;99.90
23120;DHT22;11729;50.836;4.330;2023-04-16T08:31:51;10.60;99.90
23120;DHT22;11729;50.836;4.330;2023-04-16T08:34:18;10.50;99.90
23120;DHT22;11729;50.836;4.330;2023-04-16T08:36:43;10.30;99.90
23120;DHT22;11729;50.836;4.330;2023-04-16T08:39:10;10.30;99.90
23120;DHT22;11729;50.836;4.330;2023-04-16T08:41:38;10.60;99.90
23120;DHT22;11729;50.836;4.330;2023-04-16T08:44:07;10.70;99.90
23120;DHT22;11729;50.836;4.330;2023-04-16T08:46:36;10.60;99.90
23120;DHT22;11729;50.836;4.330;2023-04-16T08:49:03;10.60;99.90
23120;DHT22;11729;50.836;4.330;2023-04-16T08:51:33;10.60;99.90
23120;DHT22;11729;50.836;4.330;2023-04-16T08:54:12;10.80;99.90
23120;DHT22;11729;50.836;4.330;2023-04-16T08:56:40;10.60;99.90
23120;DHT22;11729;50.836;4.330;2023-04-16T08:59:08;10.70;99.90
23120;DHT22;11729;50.836;4.330;2023-04-16T09:01:34;10.70;99.90
23120;DHT22;11729;50.836;4.330;2023-04-16T09:04:01;10.60;99.90
23120;DHT22;11729;50.836;4.330;2023-04-16T09:06:28;10.80;99.90
23120;DHT22;11729;50.836;4.330;2023-04-16T09:08:56;10.60;99.90
23120;DHT22;11729;50.836;4.330;2023-04-16T09:11:23;10.70;99.90
23120;DHT22;11729;50.836;4.330;2023-04-16T09:13:51;10.80;99.90
23120;DHT22;11729;50.836;4.330;2023-04-16T09:16:17;10.70;99.90
23120;DHT22;11729;50.836;4.330;2023-04-16T09:18:44;10.60;99.90
23120;DHT22;11729;50.836;4.330;2023-04-16T09:21:13;10.60;99.90
23120;DHT22;11729;50.836;4.330;2023-04-16T09:23:39;10.70;99.90
23120;DHT22;11729;50.836;4.330;2023-04-16T09:26:06;10.60;99.90
23120;DHT22;11729;50.836;4.330;2023-04-16T09:28:41;10.60;99.90
23120;DHT22;11729;50.836;4.330;2023-04-16T09:31:14;10.80;99.90
23120;DHT22;11729;50.836;4.330;2023-04-16T09:33:41;10.90;99.90
23120;DHT22;11729;50.836;4.330;2023-04-16T09:36:08;11.10;99.90
23120;DHT22;11729;50.836;4.330;2023-04-16T09:38:47;11.20;99.90
23120;DHT22;11729;50.836;4.330;2023-04-16T09:41:13;11.20;99.90
23120;DHT22;11729;50.836;4.330;2023-04-16T09:43:52;11.20;99.90
23120;DHT22;11729;50.836;4.330;2023-04-16T09:46:20;11.10;99.90
23120;DHT22;11729;50.836;4.330;2023-04-16T09:48:45;11.00;99.90
23120;DHT22;11729;50.836;4.330;2023-04-16T09:51:11;10.90;99.90
23120;DHT22;11729;50.836;4.330;2023-04-16T09:53:37;11.10;99.90
23120;DHT22;11729;50.836;4.330;2023-04-16T09:56:05;11.00;99.90
23120;DHT22;11729;50.836;4.330;2023-04-16T09:58:34;11.00;99.90
23120;DHT22;11729;50.836;4.330;2023-04-16T10:01:01;11.20;99.90
23120;DHT22;11729;50.836;4.330;2023-04-16T10:03:32;11.20;99.90
23120;DHT22;11729;50.836;4.330;2023-04-16T10:06:17;11.10;99.90
23120;DHT22;11729;50.836;4.330;2023-04-16T10:11:16;10.70;99.90
23120;DHT22;11729;50.836;4.330;2023-04-16T10:13:42;10.70;99.90
23120;DHT22;11729;50.836;4.330;2023-04-16T10:16:08;10.80;99.90
23120;DHT22;11729;50.836;4.330;2023-04-16T10:18:39;11.00;99.90
23120;DHT22;11729;50.836;4.330;2023-04-16T10:21:05;11.00;99.90
23120;DHT22;11729;50.836;4.330;2023-04-16T10:23:34;10.90;99.90
23120;DHT22;11729;50.836;4.330;2023-04-16T10:26:01;11.20;99.90
23120;DHT22;11729;50.836;4.330;2023-04-16T10:28:27;11.00;99.90
23120;DHT22;11729;50.836;4.330;2023-04-16T10:30:55;10.90;99.90
23120;DHT22;11729;50.836;4.330;2023-04-16T10:33:30;10.90;99.90
23120;DHT22;11729;50.836;4.330;2023-04-16T10:36:14;10.90;99.90
23120;DHT22;11729;50.836;4.330;2023-04-16T10:38:48;10.80;99.90
23120;DHT22;11729;50.836;4.330;2023-04-16T10:41:14;10.60;99.90
23120;DHT22;11729;50.836;4.330;2023-04-16T10:43:48;10.60;99.90
23120;DHT22;11729;50.836;4.330;2023-04-16T10:46:30;10.80;99.90
23120;DHT22;11729;50.836;4.330;2023-04-16T10:49:00;10.70;99.90
23120;DHT22;11729;50.836;4.330;2023-04-16T10:56:34;10.90;99.90
23120;DHT22;11729;50.836;4.330;2023-04-16T10:59:03;11.20;99.90
23120;DHT22;11729;50.836;4.330;2023-04-16T11:01:31;11.10;99.90
23120;DHT22;11729;50.836;4.330;2023-04-16T11:04:01;11.10;99.90
23120;DHT22;11729;50.836;4.330;2023-04-16T11:07:10;11.10;99.90
23120;DHT22;11729;50.836;4.330;2023-04-16T11:14:53;11.40;99.90
23120;DHT22;11729;50.836;4.330;2023-04-16T11:17:26;11.30;99.90
23120;DHT22;11729;50.836;4.330;2023-04-16T11:19:52;11.30;99.90
23120;DHT22;11729;50.836;4.330;2023-04-16T11:22:17;11.40;99.90
23120;DHT22;11729;50.836;4.330;2023-04-16T11:24:45;11.60;99.90
23120;DHT22;11729;50.836;4.330;2023-04-16T11:27:12;11.60;99.90
23120;DHT22;11729;50.836;4.330;2023-04-16T11:29:38;11.70;99.90
23120;DHT22;11729;50.836;4.330;2023-04-16T11:32:04;11.70;99.90
23120;DHT22;11729;50.836;4.330;2023-04-16T11:34:30;11.60;99.90
23120;DHT22;11729;50.836;4.330;2023-04-16T11:36:56;11.40;99.90
23120;DHT22;11729;50.836;4.330;2023-04-16T11:39:22;11.30;99.90
23120;DHT22;11729;50.836;4.330;2023-04-16T11:41:49;11.60;99.90
23120;DHT22;11729;50.836;4.330;2023-04-16T11:44:25;11.70;99.90
23120;DHT22;11729;50.836;4.330;2023-04-16T11:46:53;11.70;99.90
23120;DHT22;11729;50.836;4.330;2023-04-16T11:49:29;11.80;99.90
23120;DHT22;11729;50.836;4.330;2023-04-16T11:51:55;12.00;99.90
23120;DHT22;11729;50.836;4.330;2023-04-16T11:54:23;12.10;99.90
23120;DHT22;11729;50.836;4.330;2023-04-16T11:56:51;11.80;99.90
23120;DHT22;11729;50.836;4.330;2023-04-16T11:59:22;11.90;99.90
23120;DHT22;11729;50.836;4.330;2023-04-16T12:01:53;12.00;99.90
23120;DHT22;11729;50.836;4.330;2023-04-16T12:04:23;12.00;99.90
23120;DHT22;11729;50.836;4.330;2023-04-16T12:07:08;11.80;99.90
23120;DHT22;11729;50.836;4.330;2023-04-16T12:09:36;11.60;99.90
23120;DHT22;11729;50.836;4.330;2023-04-16T12:12:03;11.70;99.90
23120;DHT22;11729;50.836;4.330;2023-04-16T12:14:29;11.60;99.90
23120;DHT22;11729;50.836;4.330;2023-04-16T12:17:15;11.70;99.90
23120;DHT22;11729;50.836;4.330;2023-04-16T12:19:52;11.80;99.90
23120;DHT22;11729;50.836;4.330;2023-04-16T12:22:27;11.80;99.90
23120;DHT22;11729;50.836;4.330;2023-04-16T12:24:58;11.70;99.90
23120;DHT22;11729;50.836;4.330;2023-04-16T12:27:24;11.80;99.90
23120;DHT22;11729;50.836;4.330;2023-04-16T12:30:06;11.80;99.90
23120;DHT22;11729;50.836;4.330;2023-04-16T12:32:32;11.70;99.90
23120;DHT22;11729;50.836;4.330;2023-04-16T12:34:58;11.90;99.90
23120;DHT22;11729;50.836;4.330;2023-04-16T12:37:24;12.00;99.90
23120;DHT22;11729;50.836;4.330;2023-04-16T12:39:49;12.10;99.90
23120;DHT22;11729;50.836;4.330;2023-04-16T12:42:15;12.30;99.90
23120;DHT22;11729;50.836;4.330;2023-04-16T12:44:40;12.20;99.90
23120;DHT22;11729;50.836;4.330;2023-04-16T12:47:07;12.00;99.90
23120;DHT22;11729;50.836;4.330;2023-04-16T12:49:33;12.00;99.90
23120;DHT22;11729;50.836;4.330;2023-04-16T12:52:00;11.90;99.90
23120;DHT22;11729;50.836;4.330;2023-04-16T12:54:26;12.00;99.90
23120;DHT22;11729;50.836;4.330;2023-04-16T12:56:54;12.10;99.90
23120;DHT22;11729;50.836;4.330;2023-04-16T12:59:19;12.30;99.90
23120;DHT22;11729;50.836;4.330;2023-04-16T13:01:45;12.30;99.90
23120;DHT22;11729;50.836;4.330;2023-04-16T13:04:10;12.50;99.90
23120;DHT22;11729;50.836;4.330;2023-04-16T13:06:36;12.40;99.90
23120;DHT22;11729;50.836;4.330;2023-04-16T13:09:10;12.20;99.90
23120;DHT22;11729;50.836;4.330;2023-04-16T13:11:38;12.10;99.90
23120;DHT22;11729;50.836;4.330;2023-04-16T13:14:03;12.00;99.90
23120;DHT22;11729;50.836;4.330;2023-04-16T13:16:29;12.20;99.90
23120;DHT22;11729;50.836;4.330;2023-04-16T13:18:54;12.30;99.90
23120;DHT22;11729;50.836;4.330;2023-04-16T13:21:20;12.40;99.90
23120;DHT22;11729;50.836;4.330;2023-04-16T13:23:47;12.30;99.90
23120;DHT22;11729;50.836;4.330;2023-04-16T13:26:14;12.30;99.90
23120;DHT22;11729;50.836;4.330;2023-04-16T13:28:40;12.50;99.90
23120;DHT22;11729;50.836;4.330;2023-04-16T13:31:06;12.40;99.90
23120;DHT22;11729;50.836;4.330;2023-04-16T13:33:31;12.70;99.90
23120;DHT22;11729;50.836;4.330;2023-04-16T13:35:57;12.70;99.90
23120;DHT22;11729;50.836;4.330;2023-04-16T13:38:22;12.80;99.90
23120;DHT22;11729;50.836;4.330;2023-04-16T13:40:48;12.90;99.90
23120;DHT22;11729;50.836;4.330;2023-04-16T13:43:16;12.80;99.90
23120;DHT22;11729;50.836;4.330;2023-04-16T13:45:43;13.10;99.90
23120;DHT22;11729;50.836;4.330;2023-04-16T13:48:09;13.20;99.90
23120;DHT22;11729;50.836;4.330;2023-04-16T13:50:34;13.10;99.90
23120;DHT22;11729;50.836;4.330;2023-04-16T13:53:00;13.00;99.90
23120;DHT22;11729;50.836;4.330;2023-04-16T13:55:26;13.30;99.90
23120;DHT22;11729;50.836;4.330;2023-04-16T13:57:52;13.30;99.90
23120;DHT22;11729;50.836;4.330;2023-04-16T14:00:18;13.40;99.90
23120;DHT22;11729;50.836;4.330;2023-04-16T14:02:44;13.40;99.90
23120;DHT22;11729;50.836;4.330;2023-04-16T14:05:13;13.20;99.90
23120;DHT22;11729;50.836;4.330;2023-04-16T14:07:38;13.20;99.90
23120;DHT22;11729;50.836;4.330;2023-04-16T14:10:05;13.10;99.90
23120;DHT22;11729;50.836;4.330;2023-04-16T14:12:31;12.90;99.90
23120;DHT22;11729;50.836;4.330;2023-04-16T14:14:57;13.00;99.90
23120;DHT22;11729;50.836;4.330;2023-04-16T14:17:23;13.20;99.90
23120;DHT22;11729;50.836;4.330;2023-04-16T14:19:48;13.30;99.90
23120;DHT22;11729;50.836;4.330;2023-04-16T14:22:14;13.40;99.90
23120;DHT22;11729;50.836;4.330;2023-04-16T14:24:42;13.40;99.90
23120;DHT22;11729;50.836;4.330;2023-04-16T14:27:08;13.20;99.90
23120;DHT22;11729;50.836;4.330;2023-04-16T14:29:34;13.40;99.90
23120;DHT22;11729;50.836;4.330;2023-04-16T14:32:01;13.50;99.90
23120;DHT22;11729;50.836;4.330;2023-04-16T14:34:26;13.50;99.90
23120;DHT22;11729;50.836;4.330;2023-04-16T14:36:52;13.50;99.90
23120;DHT22;11729;50.836;4.330;2023-04-16T14:39:18;13.50;99.90
23120;DHT22;11729;50.836;4.330;2023-04-16T14:41:43;13.20;99.90
23120;DHT22;11729;50.836;4.330;2023-04-16T14:44:09;13.00;99.90
23120;DHT22;11729;50.836;4.330;2023-04-16T14:46:35;13.20;99.90
23120;DHT22;11729;50.836;4.330;2023-04-16T14:49:03;13.30;99.90
23120;DHT22;11729;50.836;4.330;2023-04-16T14:51:29;12.90;99.90
23120;DHT22;11729;50.836;4.330;2023-04-16T14:53:56;12.90;99.90
23120;DHT22;11729;50.836;4.330;2023-04-16T14:56:21;12.90;99.90
23120;DHT22;11729;50.836;4.330;2023-04-16T14:58:47;13.10;99.90
23120;DHT22;11729;50.836;4.330;2023-04-16T15:01:12;13.40;99.90
23120;DHT22;11729;50.836;4.330;2023-04-16T15:03:40;13.20;99.90
23120;DHT22;11729;50.836;4.330;2023-04-16T15:06:07;13.10;99.90
23120;DHT22;11729;50.836;4.330;2023-04-16T15:08:33;13.10;99.90
23120;DHT22;11729;50.836;4.330;2023-04-16T15:11:00;13.10;99.90
23120;DHT22;11729;50.836;4.330;2023-04-16T15:13:26;13.10;99.90
23120;DHT22;11729;50.836;4.330;2023-04-16T15:16:01;12.90;99.90
23120;DHT22;11729;50.836;4.330;2023-04-16T15:18:27;12.90;99.90
23120;DHT22;11729;50.836;4.330;2023-04-16T15:20:54;13.00;99.90
23120;DHT22;11729;50.836;4.330;2023-04-16T15:23:20;13.00;99.90
23120;DHT22;11729;50.836;4.330;2023-04-16T15:25:46;12.70;99.90
23120;DHT22;11729;50.836;4.330;2023-04-16T15:28:11;12.80;99.90
23120;DHT22;11729;50.836;4.330;2023-04-16T15:30:39;12.90;99.90
23120;DHT22;11729;50.836;4.330;2023-04-16T15:33:05;12.80;99.90
23120;DHT22;11729;50.836;4.330;2023-04-16T15:35:31;12.80;99.90
23120;DHT22;11729;50.836;4.330;2023-04-16T15:37:57;12.70;99.90
23120;DHT22;11729;50.836;4.330;2023-04-16T15:40:27;12.70;99.90
23120;DHT22;11729;50.836;4.330;2023-04-16T15:42:54;13.00;99.90
23120;DHT22;11729;50.836;4.330;2023-04-16T15:45:20;12.80;99.90